sensor_id;sensor_type;location;lat;lon;timestamp;temperature;humidity
3478;DHT22;37937;61.490;23.506;2024-01-25T00:00:51;-0.60;99.90
3478;DHT22;37937;61.490;23.506;2024-01-25T00:03:16;-0.60;99.90
3478;DHT22;37937;61.490;23.506;2024-01-25T00:05:43;-0.60;99.90
3478;DHT22;37937;61.490;23.506;2024-01-25T00:08:08;-0.60;99.90
3478;DHT22;37937;61.490;23.506;2024-01-25T00:10:34;-0.70;99.90
3478;DHT22;37937;61.490;23.506;2024-01-25T00:12:59;-0.70;99.90
3478;DHT22;37937;61.490;23.506;2024-01-25T00:15:25;-0.70;99.90
3478;DHT22;37937;61.490;23.506;2024-01-25T00:17:51;-0.60;99.90
3478;DHT22;37937;61.490;23.506;2024-01-25T00:20:17;-0.60;99.90
3478;DHT22;37937;61.490;23.506;2024-01-25T00:22:42;-0.70;99.90
3478;DHT22;37937;61.490;23.506;2024-01-25T00:25:08;-0.70;99.90
3478;DHT22;37937;61.490;23.506;2024-01-25T00:27:34;-0.70;99.90
3478;DHT22;37937;61.490;23.506;2024-01-25T00:29:59;-0.70;99.90
3478;DHT22;37937;61.490;23.506;2024-01-25T00:32:25;-0.70;99.90
3478;DHT22;37937;61.490;23.506;2024-01-25T00:34:51;-0.70;99.90
3478;DHT22;37937;61.490;23.506;2024-01-25T00:37:17;-0.70;99.90
3478;DHT22;37937;61.490;23.506;2024-01-25T00:39:42;-0.70;99.90
3478;DHT22;37937;61.490;23.506;2024-01-25T00:42:08;-0.70;99.90
3478;DHT22;37937;61.490;23.506;2024-01-25T00:44:37;-0.80;99.90
3478;DHT22;37937;61.490;23.506;2024-01-25T00:47:03;-0.80;99.90
3478;DHT22;37937;61.490;23.506;2024-01-25T00:49:28;-0.80;99.90
3478;DHT22;37937;61.490;23.506;2024-01-25T00:51:56;-0.80;99.90
3478;DHT22;37937;61.490;23.506;2024-01-25T00:54:24;-0.80;99.90
3478;DHT22;37937;61.490;23.506;2024-01-25T00:56:49;-0.80;99.90
3478;DHT22;37937;61.490;23.506;2024-01-25T00:59:20;-0.80;99.90
3478;DHT22;37937;61.490;23.506;2024-01-25T01:01:47;-0.90;99.90
3478;DHT22;37937;61.490;23.506;2024-01-25T01:04:13;-0.80;99.90
3478;DHT22;37937;61.490;23.506;2024-01-25T01:06:39;-0.80;99.90
3478;DHT22;37937;61.490;23.506;2024-01-25T01:09:05;-0.90;99.90
3478;DHT22;37937;61.490;23.506;2024-01-25T01:11:33;-0.90;99.90
3478;DHT22;37937;61.490;23.506;2024-01-25T01:13:58;-0.90;99.90
3478;DHT22;37937;61.490;23.506;2024-01-25T01:16:24;-0.90;99.90
3478;DHT22;37937;61.490;23.506;2024-01-25T01:18:50;-0.90;99.90
3478;DHT22;37937;61.490;23.506;2024-01-25T01:21:15;-0.90;99.90
3478;DHT22;37937;61.490;23.506;2024-01-25T01:23:41;-0.90;99.90
3478;DHT22;37937;61.490;23.506;2024-01-25T01:26:07;-0.90;99.90
3478;DHT22;37937;61.490;23.506;2024-01-25T01:28:32;-0.90;99.90
3478;DHT22;37937;61.490;23.506;2024-01-25T01:30:59;-0.90;99.90
3478;DHT22;37937;61.490;23.506;2024-01-25T01:33:25;-1.00;99.90
3478;DHT22;37937;61.490;23.506;2024-01-25T01:35:51;-1.00;99.90
3478;DHT22;37937;61.490;23.506;2024-01-25T01:38:16;-1.00;99.90
3478;DHT22;37937;61.490;23.506;2024-01-25T01:40:44;-1.00;99.90
3478;DHT22;37937;61.490;23.506;2024-01-25T01:43:18;-1.00;99.90
3478;DHT22;37937;61.490;23.506;2024-01-25T01:45:45;-1.00;99.90
3478;DHT22;37937;61.490;23.506;2024-01-25T01:48:10;-1.10;99.90
3478;DHT22;37937;61.490;23.506;2024-01-25T01:50:36;-1.10;99.90
3478;DHT22;37937;61.490;23.506;2024-01-25T01:53:02;-1.30;99.90
3478;DHT22;37937;61.490;23.506;2024-01-25T01:55:28;-1.10;99.90
3478;DHT22;37937;61.490;23.506;2024-01-25T01:57:54;-1.00;99.90
3478;DHT22;37937;61.490;23.506;2024-01-25T02:00:20;-1.00;99.90
3478;DHT22;37937;61.490;23.506;2024-01-25T02:02:46;-1.10;99.90
3478;DHT22;37937;61.490;23.506;2024-01-25T02:05:12;-1.10;99.90
3478;DHT22;37937;61.490;23.506;2024-01-25T02:07:38;-1.10;99.90
3478;DHT22;37937;61.490;23.506;2024-01-25T02:10:06;-1.10;99.90
3478;DHT22;37937;61.490;23.506;2024-01-25T02:12:31;-1.00;99.90
3478;DHT22;37937;61.490;23.506;2024-01-25T02:14:57;-1.10;99.90
3478;DHT22;37937;61.490;23.506;2024-01-25T02:17:23;-1.10;99.90
3478;DHT22;37937;61.490;23.506;2024-01-25T02:19:48;-1.10;99.90
3478;DHT22;37937;61.490;23.506;2024-01-25T02:22:15;-1.10;99.90
3478;DHT22;37937;61.490;23.506;2024-01-25T02:24:40;-1.10;99.90
3478;DHT22;37937;61.490;23.506;2024-01-25T02:27:06;-1.10;99.90
3478;DHT22;37937;61.490;23.506;2024-01-25T02:29:32;-1.10;99.90
3478;DHT22;37937;61.490;23.506;2024-01-25T02:31:58;-1.10;99.90
3478;DHT22;37937;61.490;23.506;2024-01-25T02:34:23;-1.20;99.90
3478;DHT22;37937;61.490;23.506;2024-01-25T02:36:49;-1.20;99.90
3478;DHT22;37937;61.490;23.506;2024-01-25T02:39:14;-1.20;99.90
3478;DHT22;37937;61.490;23.506;2024-01-25T02:41:40;-1.20;99.90
3478;DHT22;37937;61.490;23.506;2024-01-25T02:44:06;-1.20;99.90
3478;DHT22;37937;61.490;23.506;2024-01-25T02:46:33;-1.20;99.90
3478;DHT22;37937;61.490;23.506;2024-01-25T02:48:59;-1.20;99.90
3478;DHT22;37937;61.490;23.506;2024-01-25T02:51:24;-1.20;99.90
3478;DHT22;37937;61.490;23.506;2024-01-25T02:53:50;-1.30;99.90
3478;DHT22;37937;61.490;23.506;2024-01-25T02:56:16;-1.20;99.90
3478;DHT22;37937;61.490;23.506;2024-01-25T02:58:41;-1.20;99.90
3478;DHT22;37937;61.490;23.506;2024-01-25T03:01:07;-1.20;99.90
3478;DHT22;37937;61.490;23.506;2024-01-25T03:03:33;-1.20;99.90
3478;DHT22;37937;61.490;23.506;2024-01-25T03:06:02;-1.20;99.90
3478;DHT22;37937;61.490;23.506;2024-01-25T03:08:28;-1.20;99.90
3478;DHT22;37937;61.490;23.506;2024-01-25T03:10:54;-1.20;99.90
3478;DHT22;37937;61.490;23.506;2024-01-25T03:13:20;-1.20;99.90
3478;DHT22;37937;61.490;23.506;2024-01-25T03:15:45;-1.30;99.90
3478;DHT22;37937;61.490;23.506;2024-01-25T03:18:11;-1.30;99.90
3478;DHT22;37937;61.490;23.506;2024-01-25T03:20:37;-1.30;99.90
3478;DHT22;37937;61.490;23.506;2024-01-25T03:23:03;-1.30;99.90
3478;DHT22;37937;61.490;23.506;2024-01-25T03:25:29;-1.30;99.90
3478;DHT22;37937;61.490;23.506;2024-01-25T03:27:55;-1.30;99.90
3478;DHT22;37937;61.490;23.506;2024-01-25T03:30:21;-1.30;99.90
3478;DHT22;37937;61.490;23.506;2024-01-25T03:32:47;-1.30;99.90
3478;DHT22;37937;61.490;23.506;2024-01-25T03:35:13;-1.40;99.90
3478;DHT22;37937;61.490;23.506;2024-01-25T03:37:39;-1.40;99.90
3478;DHT22;37937;61.490;23.506;2024-01-25T03:40:05;-1.40;99.90
3478;DHT22;37937;61.490;23.506;2024-01-25T03:42:30;-1.40;99.90
3478;DHT22;37937;61.490;23.506;2024-01-25T03:44:56;-1.50;99.90
3478;DHT22;37937;61.490;23.506;2024-01-25T03:47:22;-1.50;99.90
3478;DHT22;37937;61.490;23.506;2024-01-25T03:49:47;-1.50;99.90
3478;DHT22;37937;61.490;23.506;2024-01-25T03:52:13;-1.50;99.90
3478;DHT22;37937;61.490;23.506;2024-01-25T03:54:39;-1.60;99.90
3478;DHT22;37937;61.490;23.506;2024-01-25T03:57:04;-1.60;99.90
3478;DHT22;37937;61.490;23.506;2024-01-25T03:59:30;-1.60;99.90
3478;DHT22;37937;61.490;23.506;2024-01-25T04:01:56;-1.60;99.90
3478;DHT22;37937;61.490;23.506;2024-01-25T04:04:22;-1.60;99.90
3478;DHT22;37937;61.490;23.506;2024-01-25T04:06:48;-1.60;99.90
3478;DHT22;37937;61.490;23.506;2024-01-25T04:09:13;-1.60;99.90
3478;DHT22;37937;61.490;23.506;2024-01-25T04:11:40;-1.60;99.90
3478;DHT22;37937;61.490;23.506;2024-01-25T04:14:06;-1.60;99.90
3478;DHT22;37937;61.490;23.506;2024-01-25T04:16:32;-1.70;99.90
3478;DHT22;37937;61.490;23.506;2024-01-25T04:18:58;-1.70;99.90
3478;DHT22;37937;61.490;23.506;2024-01-25T04:21:24;-1.70;99.90
3478;DHT22;37937;61.490;23.506;2024-01-25T04:23:49;-1.80;99.90
3478;DHT22;37937;61.490;23.506;2024-01-25T04:26:15;-1.70;99.90
3478;DHT22;37937;61.490;23.506;2024-01-25T04:28:42;-1.70;99.90
3478;DHT22;37937;61.490;23.506;2024-01-25T04:31:07;-1.70;99.90
3478;DHT22;37937;61.490;23.506;2024-01-25T04:33:33;-1.80;99.90
3478;DHT22;37937;61.490;23.506;2024-01-25T04:35:59;-1.80;99.90
3478;DHT22;37937;61.490;23.506;2024-01-25T04:38:25;-1.80;99.90
3478;DHT22;37937;61.490;23.506;2024-01-25T04:40:50;-1.80;99.90
3478;DHT22;37937;61.490;23.506;2024-01-25T04:43:16;-1.80;99.90
3478;DHT22;37937;61.490;23.506;2024-01-25T04:45:42;-1.80;99.90
3478;DHT22;37937;61.490;23.506;2024-01-25T04:48:07;-1.80;99.90
3478;DHT22;37937;61.490;23.506;2024-01-25T04:50:34;-1.80;99.90
3478;DHT22;37937;61.490;23.506;2024-01-25T04:53:01;-1.80;99.90
3478;DHT22;37937;61.490;23.506;2024-01-25T04:55:27;-1.80;99.90
3478;DHT22;37937;61.490;23.506;2024-01-25T04:57:53;-1.80;99.90
3478;DHT22;37937;61.490;23.506;2024-01-25T05:00:19;-1.80;99.90
3478;DHT22;37937;61.490;23.506;2024-01-25T05:02:45;-1.80;99.90
3478;DHT22;37937;61.490;23.506;2024-01-25T05:05:11;-1.80;99.90
3478;DHT22;37937;61.490;23.506;2024-01-25T05:07:36;-1.80;99.90
3478;DHT22;37937;61.490;23.506;2024-01-25T05:10:02;-1.80;99.90
3478;DHT22;37937;61.490;23.506;2024-01-25T05:12:28;-1.80;99.90
3478;DHT22;37937;61.490;23.506;2024-01-25T05:14:53;-1.90;99.90
3478;DHT22;37937;61.490;23.506;2024-01-25T05:17:19;-1.90;99.90
3478;DHT22;37937;61.490;23.506;2024-01-25T05:19:44;-1.90;99.90
3478;DHT22;37937;61.490;23.506;2024-01-25T05:22:10;-1.90;99.90
3478;DHT22;37937;61.490;23.506;2024-01-25T05:24:36;-1.90;99.90
3478;DHT22;37937;61.490;23.506;2024-01-25T05:27:02;-1.80;99.90
3478;DHT22;37937;61.490;23.506;2024-01-25T05:29:27;-1.80;99.90
3478;DHT22;37937;61.490;23.506;2024-01-25T05:31:53;-1.70;99.90
3478;DHT22;37937;61.490;23.506;2024-01-25T05:34:19;-1.80;99.90
3478;DHT22;37937;61.490;23.506;2024-01-25T05:36:44;-1.80;99.90
3478;DHT22;37937;61.490;23.506;2024-01-25T05:39:10;-1.90;99.90
3478;DHT22;37937;61.490;23.506;2024-01-25T05:41:35;-1.90;99.90
3478;DHT22;37937;61.490;23.506;2024-01-25T05:44:01;-2.00;99.90
3478;DHT22;37937;61.490;23.506;2024-01-25T05:46:27;-1.90;99.90
3478;DHT22;37937;61.490;23.506;2024-01-25T05:48:52;-2.00;99.90
3478;DHT22;37937;61.490;23.506;2024-01-25T05:51:18;-2.10;99.90
3478;DHT22;37937;61.490;23.506;2024-01-25T05:53:44;-2.10;99.90
3478;DHT22;37937;61.490;23.506;2024-01-25T05:56:09;-2.10;99.90
3478;DHT22;37937;61.490;23.506;2024-01-25T05:58:35;-2.10;99.90
3478;DHT22;37937;61.490;23.506;2024-01-25T06:01:01;-2.10;99.90
3478;DHT22;37937;61.490;23.506;2024-01-25T06:03:26;-2.20;99.90
3478;DHT22;37937;61.490;23.506;2024-01-25T06:05:53;-2.20;99.90
3478;DHT22;37937;61.490;23.506;2024-01-25T06:08:19;-2.20;99.90
3478;DHT22;37937;61.490;23.506;2024-01-25T06:10:44;-2.10;99.90
3478;DHT22;37937;61.490;23.506;2024-01-25T06:13:10;-2.20;99.90
3478;DHT22;37937;61.490;23.506;2024-01-25T06:15:36;-2.20;99.90
3478;DHT22;37937;61.490;23.506;2024-01-25T06:18:04;-2.30;99.90
3478;DHT22;37937;61.490;23.506;2024-01-25T06:20:30;-2.20;99.90
3478;DHT22;37937;61.490;23.506;2024-01-25T06:22:56;-2.20;99.90
3478;DHT22;37937;61.490;23.506;2024-01-25T06:25:22;-2.10;99.90
3478;DHT22;37937;61.490;23.506;2024-01-25T06:27:47;-2.10;99.90
3478;DHT22;37937;61.490;23.506;2024-01-25T06:30:13;-2.10;99.90
3478;DHT22;37937;61.490;23.506;2024-01-25T06:32:39;-2.10;99.90
3478;DHT22;37937;61.490;23.506;2024-01-25T06:35:05;-2.10;99.90
3478;DHT22;37937;61.490;23.506;2024-01-25T06:37:31;-2.20;99.90
3478;DHT22;37937;61.490;23.506;2024-01-25T06:39:56;-2.30;99.90
3478;DHT22;37937;61.490;23.506;2024-01-25T06:42:22;-2.20;99.90
3478;DHT22;37937;61.490;23.506;2024-01-25T06:44:48;-2.20;99.90
3478;DHT22;37937;61.490;23.506;2024-01-25T06:47:13;-2.20;99.90
3478;DHT22;37937;61.490;23.506;2024-01-25T06:49:39;-2.20;99.90
3478;DHT22;37937;61.490;23.506;2024-01-25T06:52:05;-2.30;99.90
3478;DHT22;37937;61.490;23.506;2024-01-25T06:54:31;-2.30;99.90
3478;DHT22;37937;61.490;23.506;2024-01-25T06:56:56;-2.20;99.90
3478;DHT22;37937;61.490;23.506;2024-01-25T06:59:22;-2.30;99.90
3478;DHT22;37937;61.490;23.506;2024-01-25T07:01:49;-2.40;99.90
3478;DHT22;37937;61.490;23.506;2024-01-25T07:04:15;-2.40;99.90
3478;DHT22;37937;61.490;23.506;2024-01-25T07:06:40;-2.50;99.90
3478;DHT22;37937;61.490;23.506;2024-01-25T07:09:06;-2.40;99.90
3478;DHT22;37937;61.490;23.506;2024-01-25T07:11:31;-2.30;99.90
3478;DHT22;37937;61.490;23.506;2024-01-25T07:13:57;-2.30;99.90
3478;DHT22;37937;61.490;23.506;2024-01-25T07:16:23;-2.30;99.90
3478;DHT22;37937;61.490;23.506;2024-01-25T07:18:49;-2.40;99.90
3478;DHT22;37937;61.490;23.506;2024-01-25T07:21:15;-2.30;99.90
3478;DHT22;37937;61.490;23.506;2024-01-25T07:23:42;-2.30;99.90
3478;DHT22;37937;61.490;23.506;2024-01-25T07:26:07;-2.30;99.90
3478;DHT22;37937;61.490;23.506;2024-01-25T07:28:33;-2.30;99.90
3478;DHT22;37937;61.490;23.506;2024-01-25T07:30:59;-2.30;99.90
3478;DHT22;37937;61.490;23.506;2024-01-25T07:33:24;-2.20;99.90
3478;DHT22;37937;61.490;23.506;2024-01-25T07:35:50;-2.20;99.90
3478;DHT22;37937;61.490;23.506;2024-01-25T07:38:16;-2.30;99.90
3478;DHT22;37937;61.490;23.506;2024-01-25T07:40:41;-2.30;99.90
3478;DHT22;37937;61.490;23.506;2024-01-25T07:43:07;-2.30;99.90
3478;DHT22;37937;61.490;23.506;2024-01-25T07:45:33;-2.30;99.90
3478;DHT22;37937;61.490;23.506;2024-01-25T07:47:58;-2.40;99.90
3478;DHT22;37937;61.490;23.506;2024-01-25T07:50:24;-2.40;99.90
3478;DHT22;37937;61.490;23.506;2024-01-25T07:52:50;-2.40;99.90
3478;DHT22;37937;61.490;23.506;2024-01-25T07:55:16;-2.50;99.90
3478;DHT22;37937;61.490;23.506;2024-01-25T07:57:41;-2.40;99.90
3478;DHT22;37937;61.490;23.506;2024-01-25T08:00:08;-2.30;99.90
3478;DHT22;37937;61.490;23.506;2024-01-25T08:02:34;-2.30;99.90
3478;DHT22;37937;61.490;23.506;2024-01-25T08:05:00;-2.30;99.90
3478;DHT22;37937;61.490;23.506;2024-01-25T08:07:25;-2.40;99.90
3478;DHT22;37937;61.490;23.506;2024-01-25T08:09:51;-2.40;99.90
3478;DHT22;37937;61.490;23.506;2024-01-25T08:12:18;-2.40;99.90
3478;DHT22;37937;61.490;23.506;2024-01-25T08:14:43;-2.40;99.90
3478;DHT22;37937;61.490;23.506;2024-01-25T08:17:09;-2.40;99.90
3478;DHT22;37937;61.490;23.506;2024-01-25T08:19:35;-2.40;99.90
3478;DHT22;37937;61.490;23.506;2024-01-25T08:22:01;-2.30;99.90
3478;DHT22;37937;61.490;23.506;2024-01-25T08:24:27;-2.30;99.90
3478;DHT22;37937;61.490;23.506;2024-01-25T08:26:53;-2.30;99.90
3478;DHT22;37937;61.490;23.506;2024-01-25T08:29:18;-2.30;99.90
3478;DHT22;37937;61.490;23.506;2024-01-25T08:31:44;-2.30;99.90
3478;DHT22;37937;61.490;23.506;2024-01-25T08:34:09;-2.40;99.90
3478;DHT22;37937;61.490;23.506;2024-01-25T08:36:35;-2.40;99.90
3478;DHT22;37937;61.490;23.506;2024-01-25T08:39:01;-2.40;99.90
3478;DHT22;37937;61.490;23.506;2024-01-25T08:41:26;-2.30;99.90
3478;DHT22;37937;61.490;23.506;2024-01-25T08:43:52;-2.30;99.90
3478;DHT22;37937;61.490;23.506;2024-01-25T08:46:18;-2.30;99.90
3478;DHT22;37937;61.490;23.506;2024-01-25T08:48:43;-2.30;99.90
3478;DHT22;37937;61.490;23.506;2024-01-25T08:51:09;-2.30;99.90
3478;DHT22;37937;61.490;23.506;2024-01-25T08:53:34;-2.30;99.90
3478;DHT22;37937;61.490;23.506;2024-01-25T08:56:00;-2.30;99.90
3478;DHT22;37937;61.490;23.506;2024-01-25T08:58:26;-2.30;99.90
3478;DHT22;37937;61.490;23.506;2024-01-25T09:00:51;-2.30;99.90
3478;DHT22;37937;61.490;23.506;2024-01-25T09:03:17;-2.30;99.90
3478;DHT22;37937;61.490;23.506;2024-01-25T09:05:42;-2.20;99.90
3478;DHT22;37937;61.490;23.506;2024-01-25T09:08:12;-2.30;99.90
3478;DHT22;37937;61.490;23.506;2024-01-25T09:10:38;-2.30;99.90
3478;DHT22;37937;61.490;23.506;2024-01-25T09:13:04;-2.20;99.90
3478;DHT22;37937;61.490;23.506;2024-01-25T09:15:30;-2.20;99.90
3478;DHT22;37937;61.490;23.506;2024-01-25T09:17:55;-2.20;99.90
3478;DHT22;37937;61.490;23.506;2024-01-25T09:20:21;-2.20;99.90
3478;DHT22;37937;61.490;23.506;2024-01-25T09:22:46;-2.20;99.90
3478;DHT22;37937;61.490;23.506;2024-01-25T09:25:13;-2.20;99.90
3478;DHT22;37937;61.490;23.506;2024-01-25T09:27:38;-2.20;99.90
3478;DHT22;37937;61.490;23.506;2024-01-25T09:30:07;-2.20;99.90
3478;DHT22;37937;61.490;23.506;2024-01-25T09:32:33;-2.10;99.90
3478;DHT22;37937;61.490;23.506;2024-01-25T09:34:59;-2.00;99.90
3478;DHT22;37937;61.490;23.506;2024-01-25T09:37:25;-2.00;99.90
3478;DHT22;37937;61.490;23.506;2024-01-25T09:39:50;-1.90;99.90
3478;DHT22;37937;61.490;23.506;2024-01-25T09:42:19;-1.90;99.90
3478;DHT22;37937;61.490;23.506;2024-01-25T09:44:44;-1.90;99.90
3478;DHT22;37937;61.490;23.506;2024-01-25T09:47:10;-1.80;99.90
3478;DHT22;37937;61.490;23.506;2024-01-25T09:49:36;-1.70;99.90
3478;DHT22;37937;61.490;23.506;2024-01-25T09:52:03;-1.70;99.90
3478;DHT22;37937;61.490;23.506;2024-01-25T09:54:35;-1.80;99.90
3478;DHT22;37937;61.490;23.506;2024-01-25T09:57:02;-1.90;99.90
3478;DHT22;37937;61.490;23.506;2024-01-25T09:59:28;-2.00;99.90
3478;DHT22;37937;61.490;23.506;2024-01-25T10:01:54;-1.70;99.90
3478;DHT22;37937;61.490;23.506;2024-01-25T10:04:20;-1.70;99.90
3478;DHT22;37937;61.490;23.506;2024-01-25T10:06:48;-1.60;99.90
3478;DHT22;37937;61.490;23.506;2024-01-25T10:09:14;-1.40;99.90
3478;DHT22;37937;61.490;23.506;2024-01-25T10:11:40;-1.60;99.90
3478;DHT22;37937;61.490;23.506;2024-01-25T10:14:05;-1.60;99.90
3478;DHT22;37937;61.490;23.506;2024-01-25T10:16:32;-1.60;99.90
3478;DHT22;37937;61.490;23.506;2024-01-25T10:18:58;-1.60;99.90
3478;DHT22;37937;61.490;23.506;2024-01-25T10:21:23;-1.50;99.90
3478;DHT22;37937;61.490;23.506;2024-01-25T10:23:49;-1.70;99.90
3478;DHT22;37937;61.490;23.506;2024-01-25T10:26:16;-1.60;99.90
3478;DHT22;37937;61.490;23.506;2024-01-25T10:28:42;-1.60;99.90
3478;DHT22;37937;61.490;23.506;2024-01-25T10:31:08;-1.60;99.90
3478;DHT22;37937;61.490;23.506;2024-01-25T10:33:34;-1.50;99.90
3478;DHT22;37937;61.490;23.506;2024-01-25T10:36:00;-1.50;99.90
3478;DHT22;37937;61.490;23.506;2024-01-25T10:40:55;-1.50;99.90
3478;DHT22;37937;61.490;23.506;2024-01-25T10:43:21;-1.50;99.90
3478;DHT22;37937;61.490;23.506;2024-01-25T10:45:46;-1.50;99.90
3478;DHT22;37937;61.490;23.506;2024-01-25T10:48:12;-1.60;99.90
3478;DHT22;37937;61.490;23.506;2024-01-25T10:50:38;-1.50;99.90
3478;DHT22;37937;61.490;23.506;2024-01-25T10:53:07;-1.40;99.90
3478;DHT22;37937;61.490;23.506;2024-01-25T10:55:33;-1.40;99.90
3478;DHT22;37937;61.490;23.506;2024-01-25T10:57:58;-1.50;99.90
3478;DHT22;37937;61.490;23.506;2024-01-25T11:00:24;-1.50;99.90
3478;DHT22;37937;61.490;23.506;2024-01-25T11:02:50;-1.50;99.90
3478;DHT22;37937;61.490;23.506;2024-01-25T11:05:16;-1.70;99.90
3478;DHT22;37937;61.490;23.506;2024-01-25T11:10:16;-1.70;99.90
3478;DHT22;37937;61.490;23.506;2024-01-25T11:12:54;-1.70;99.90
3478;DHT22;37937;61.490;23.506;2024-01-25T11:15:24;-1.50;99.90
3478;DHT22;37937;61.490;23.506;2024-01-25T11:17:54;-1.60;99.90
3478;DHT22;37937;61.490;23.506;2024-01-25T11:20:23;-1.60;99.90
3478;DHT22;37937;61.490;23.506;2024-01-25T11:23:11;-1.70;99.90
3478;DHT22;37937;61.490;23.506;2024-01-25T11:25:37;-1.70;99.90
3478;DHT22;37937;61.490;23.506;2024-01-25T11:28:04;-1.70;99.90
3478;DHT22;37937;61.490;23.506;2024-01-25T11:30:31;-1.80;99.90
3478;DHT22;37937;61.490;23.506;2024-01-25T11:32:57;-1.80;99.90
3478;DHT22;37937;61.490;23.506;2024-01-25T11:35:22;-1.80;99.90
3478;DHT22;37937;61.490;23.506;2024-01-25T11:37:48;-1.80;99.90
3478;DHT22;37937;61.490;23.506;2024-01-25T11:40:15;-1.80;99.90
3478;DHT22;37937;61.490;23.506;2024-01-25T11:42:44;-1.90;99.90
3478;DHT22;37937;61.490;23.506;2024-01-25T11:45:11;-2.00;99.90
3478;DHT22;37937;61.490;23.506;2024-01-25T11:47:37;-2.00;99.90
3478;DHT22;37937;61.490;23.506;2024-01-25T11:50:03;-2.00;99.90
3478;DHT22;37937;61.490;23.506;2024-01-25T11:52:29;-2.10;99.90
3478;DHT22;37937;61.490;23.506;2024-01-25T11:54:57;-1.90;99.90
3478;DHT22;37937;61.490;23.506;2024-01-25T11:57:22;-1.90;99.90
3478;DHT22;37937;61.490;23.506;2024-01-25T11:59:48;-2.00;99.90
3478;DHT22;37937;61.490;23.506;2024-01-25T12:02:15;-2.00;99.90
3478;DHT22;37937;61.490;23.506;2024-01-25T12:04:40;-2.00;99.90
3478;DHT22;37937;61.490;23.506;2024-01-25T12:07:06;-2.10;99.90
3478;DHT22;37937;61.490;23.506;2024-01-25T12:09:32;-2.00;99.90
3478;DHT22;37937;61.490;23.506;2024-01-25T12:12:00;-2.00;99.90
3478;DHT22;37937;61.490;23.506;2024-01-25T12:14:25;-2.00;99.90
3478;DHT22;37937;61.490;23.506;2024-01-25T12:16:51;-2.10;99.90
3478;DHT22;37937;61.490;23.506;2024-01-25T12:19:17;-2.10;99.90
3478;DHT22;37937;61.490;23.506;2024-01-25T12:21:46;-2.10;99.90
3478;DHT22;37937;61.490;23.506;2024-01-25T12:24:12;-2.10;99.90
3478;DHT22;37937;61.490;23.506;2024-01-25T12:26:37;-2.20;99.90
3478;DHT22;37937;61.490;23.506;2024-01-25T12:29:03;-2.10;99.90
3478;DHT22;37937;61.490;23.506;2024-01-25T12:31:30;-2.20;99.90
3478;DHT22;37937;61.490;23.506;2024-01-25T12:33:56;-2.20;99.90
3478;DHT22;37937;61.490;23.506;2024-01-25T12:36:22;-2.30;99.90
3478;DHT22;37937;61.490;23.506;2024-01-25T12:38:48;-2.30;99.90
3478;DHT22;37937;61.490;23.506;2024-01-25T12:41:14;-2.30;99.90
3478;DHT22;37937;61.490;23.506;2024-01-25T12:43:40;-2.30;99.90
3478;DHT22;37937;61.490;23.506;2024-01-25T12:46:06;-2.30;99.90
3478;DHT22;37937;61.490;23.506;2024-01-25T12:48:31;-2.40;99.90
3478;DHT22;37937;61.490;23.506;2024-01-25T12:50:57;-2.40;99.90
3478;DHT22;37937;61.490;23.506;2024-01-25T12:53:23;-2.40;99.90
3478;DHT22;37937;61.490;23.506;2024-01-25T12:55:49;-2.40;99.90
3478;DHT22;37937;61.490;23.506;2024-01-25T12:58:15;-2.50;99.90
3478;DHT22;37937;61.490;23.506;2024-01-25T13:00:40;-2.50;99.90
3478;DHT22;37937;61.490;23.506;2024-01-25T13:03:06;-2.50;99.90
3478;DHT22;37937;61.490;23.506;2024-01-25T13:05:31;-2.60;99.90
3478;DHT22;37937;61.490;23.506;2024-01-25T13:08:00;-2.50;99.90
3478;DHT22;37937;61.490;23.506;2024-01-25T13:10:26;-2.60;99.90
3478;DHT22;37937;61.490;23.506;2024-01-25T13:12:51;-2.60;99.90
3478;DHT22;37937;61.490;23.506;2024-01-25T13:15:17;-2.60;99.90
3478;DHT22;37937;61.490;23.506;2024-01-25T13:17:43;-2.60;99.90
3478;DHT22;37937;61.490;23.506;2024-01-25T13:20:08;-2.70;99.90
3478;DHT22;37937;61.490;23.506;2024-01-25T13:22:34;-2.70;99.90
3478;DHT22;37937;61.490;23.506;2024-01-25T13:25:01;-2.70;99.90
3478;DHT22;37937;61.490;23.506;2024-01-25T13:27:26;-2.80;99.90
3478;DHT22;37937;61.490;23.506;2024-01-25T13:29:52;-2.80;99.90
3478;DHT22;37937;61.490;23.506;2024-01-25T13:32:18;-2.80;99.90
3478;DHT22;37937;61.490;23.506;2024-01-25T13:34:44;-2.80;99.90
3478;DHT22;37937;61.490;23.506;2024-01-25T13:37:10;-2.90;99.90
3478;DHT22;37937;61.490;23.506;2024-01-25T13:39:35;-2.90;99.90
3478;DHT22;37937;61.490;23.506;2024-01-25T13:42:01;-2.90;99.90
3478;DHT22;37937;61.490;23.506;2024-01-25T13:44:27;-3.00;99.90
3478;DHT22;37937;61.490;23.506;2024-01-25T13:46:52;-3.00;99.90
3478;DHT22;37937;61.490;23.506;2024-01-25T13:49:19;-3.00;99.90
3478;DHT22;37937;61.490;23.506;2024-01-25T13:51:45;-3.10;99.90
3478;DHT22;37937;61.490;23.506;2024-01-25T13:54:11;-3.10;99.90
3478;DHT22;37937;61.490;23.506;2024-01-25T13:56:36;-3.10;99.90
3478;DHT22;37937;61.490;23.506;2024-01-25T13:59:03;-3.10;99.90
3478;DHT22;37937;61.490;23.506;2024-01-25T14:01:28;-3.20;99.90
3478;DHT22;37937;61.490;23.506;2024-01-25T14:03:54;-3.20;99.90
3478;DHT22;37937;61.490;23.506;2024-01-25T14:06:20;-3.20;99.90
3478;DHT22;37937;61.490;23.506;2024-01-25T14:08:45;-3.20;99.90
3478;DHT22;37937;61.490;23.506;2024-01-25T14:11:11;-3.20;99.90
3478;DHT22;37937;61.490;23.506;2024-01-25T14:13:37;-2.90;99.90
3478;DHT22;37937;61.490;23.506;2024-01-25T14:16:03;-3.10;99.90
3478;DHT22;37937;61.490;23.506;2024-01-25T14:18:29;-3.20;99.90
3478;DHT22;37937;61.490;23.506;2024-01-25T14:20:57;-3.30;99.90
3478;DHT22;37937;61.490;23.506;2024-01-25T14:23:22;-3.30;99.90
3478;DHT22;37937;61.490;23.506;2024-01-25T14:25:48;-3.40;99.90
3478;DHT22;37937;61.490;23.506;2024-01-25T14:28:14;-3.40;99.90
3478;DHT22;37937;61.490;23.506;2024-01-25T14:30:39;-3.30;99.90
3478;DHT22;37937;61.490;23.506;2024-01-25T14:33:06;-3.40;99.90
3478;DHT22;37937;61.490;23.506;2024-01-25T14:35:32;-3.40;99.90
3478;DHT22;37937;61.490;23.506;2024-01-25T14:37:57;-3.40;99.90
3478;DHT22;37937;61.490;23.506;2024-01-25T14:40:24;-3.40;99.90
3478;DHT22;37937;61.490;23.506;2024-01-25T14:42:49;-3.50;99.90
3478;DHT22;37937;61.490;23.506;2024-01-25T14:45:15;-3.40;99.90
3478;DHT22;37937;61.490;23.506;2024-01-25T14:47:41;-3.50;99.90
3478;DHT22;37937;61.490;23.506;2024-01-25T14:50:06;-3.60;99.90
3478;DHT22;37937;61.490;23.506;2024-01-25T14:52:32;-3.50;99.90
3478;DHT22;37937;61.490;23.506;2024-01-25T14:55:02;-3.60;99.90
3478;DHT22;37937;61.490;23.506;2024-01-25T14:57:28;-3.60;99.90
3478;DHT22;37937;61.490;23.506;2024-01-25T14:59:53;-3.60;99.90
3478;DHT22;37937;61.490;23.506;2024-01-25T15:02:19;-3.60;99.90
3478;DHT22;37937;61.490;23.506;2024-01-25T15:04:45;-3.60;99.90
3478;DHT22;37937;61.490;23.506;2024-01-25T15:07:10;-3.60;99.90
3478;DHT22;37937;61.490;23.506;2024-01-25T15:09:36;-3.60;99.90
3478;DHT22;37937;61.490;23.506;2024-01-25T15:12:01;-3.60;99.90
3478;DHT22;37937;61.490;23.506;2024-01-25T15:14:27;-3.70;99.90
3478;DHT22;37937;61.490;23.506;2024-01-25T15:16:53;-3.80;99.90
3478;DHT22;37937;61.490;23.506;2024-01-25T15:19:18;-3.80;99.90
3478;DHT22;37937;61.490;23.506;2024-01-25T15:21:45;-3.80;99.90
3478;DHT22;37937;61.490;23.506;2024-01-25T15:24:11;-3.80;99.90
3478;DHT22;37937;61.490;23.506;2024-01-25T15:26:42;-3.80;99.90